createdAt,value
2022-08-26T00:01:30.152Z,39.98
2022-08-26T00:03:56.936Z,39.68
2022-08-26T00:06:24.594Z,39.56
2022-08-26T00:08:51.318Z,39.64
2022-08-26T00:11:26.705Z,39.99
2022-08-26T00:13:54.871Z,40.13
2022-08-26T00:16:23.572Z,40.19
2022-08-26T00:18:50.258Z,40.27
2022-08-26T00:21:17.295Z,40.41
2022-08-26T00:23:44.606Z,40.67
2022-08-26T00:26:11.239Z,40.54
2022-08-26T00:28:38.018Z,40.63
2022-08-26T00:31:07.308Z,40.73
2022-08-26T00:33:33.922Z,40.91
2022-08-26T00:36:01.692Z,40.60
2022-08-26T00:38:30.435Z,41.10
2022-08-26T00:40:57.541Z,41.34
2022-08-26T00:43:26.122Z,40.95
2022-08-26T00:46:03.835Z,41.06
2022-08-26T00:48:32.284Z,41.26
2022-08-26T00:51:11.179Z,41.09
2022-08-26T00:53:45.419Z,40.98
2022-08-26T00:56:24.936Z,41.24
2022-08-26T00:58:51.922Z,41.29
2022-08-26T01:01:18.953Z,41.16
2022-08-26T01:03:50.228Z,41.54
2022-08-26T01:06:16.805Z,41.71
2022-08-26T01:08:43.693Z,41.51
2022-08-26T01:11:11.811Z,41.37
2022-08-26T01:13:39.803Z,41.79
2022-08-26T01:16:10.581Z,41.68
2022-08-26T01:18:37.293Z,41.79
2022-08-26T01:21:21.618Z,41.69
2022-08-26T01:23:51.729Z,41.85
2022-08-26T01:26:36.570Z,41.28
2022-08-26T01:29:06.600Z,41.35
2022-08-26T01:31:41.855Z,41.37
2022-08-26T01:34:16.982Z,41.80
2022-08-26T01:36:47.937Z,42.16
2022-08-26T01:39:18.499Z,42.51
2022-08-26T01:41:46.248Z,41.91
2022-08-26T01:44:17.337Z,41.63
2022-08-26T01:46:46.377Z,41.89
2022-08-26T01:49:15.149Z,42.29
2022-08-26T01:51:44.405Z,42.11
2022-08-26T01:54:13.745Z,42.13
2022-08-26T01:56:41.076Z,42.68
2022-08-26T01:59:12.409Z,42.76
2022-08-26T02:01:40.242Z,42.90
2022-08-26T02:04:15.836Z,42.85
2022-08-26T02:06:43.536Z,43.34
2022-08-26T02:09:11.323Z,42.95
2022-08-26T02:11:38.603Z,43.29
2022-08-26T02:14:12.491Z,43.17
2022-08-26T02:16:45.434Z,43.51
2022-08-26T02:19:18.746Z,43.38
2022-08-26T02:21:51.236Z,43.44
2022-08-26T02:24:27.546Z,43.68
2022-08-26T02:26:55.871Z,44.21
2022-08-26T02:29:24.682Z,44.23
2022-08-26T02:31:52.465Z,44.31
2022-08-26T02:34:21.736Z,44.50
2022-08-26T02:36:49.361Z,44.88
2022-08-26T02:39:22.149Z,45.21
2022-08-26T02:41:49.636Z,45.30
2022-08-26T02:44:16.161Z,45.38
2022-08-26T02:46:46.933Z,45.41
2022-08-26T02:49:14.994Z,45.67
2022-08-26T02:51:41.527Z,45.79
2022-08-26T02:54:09.624Z,45.50
2022-08-26T02:56:36.299Z,46.04
2022-08-26T02:59:02.805Z,46.50
2022-08-26T03:01:34.174Z,45.99
2022-08-26T03:04:03.420Z,46.25
2022-08-26T03:06:30.152Z,46.37
2022-08-26T03:08:57.055Z,46.60
2022-08-26T03:11:27.540Z,46.54
2022-08-26T03:13:56.182Z,46.60
2022-08-26T03:16:23.049Z,46.61
2022-08-26T03:18:52.244Z,47.09
2022-08-26T03:21:19.501Z,47.03
2022-08-26T03:23:46.119Z,46.87
2022-08-26T03:26:14.417Z,46.80
2022-08-26T03:29:01.114Z,47.17
2022-08-26T03:31:29.774Z,47.13
2022-08-26T03:33:59.786Z,47.17
2022-08-26T03:36:26.659Z,47.51
2022-08-26T03:38:53.631Z,48.01
2022-08-26T03:41:21.329Z,47.95
2022-08-26T03:43:50.710Z,47.79
2022-08-26T03:46:18.585Z,48.06
2022-08-26T03:48:45.773Z,48.16
2022-08-26T03:51:19.025Z,48.06
2022-08-26T03:53:46.923Z,48.30
2022-08-26T03:56:15.235Z,48.01
2022-08-26T03:58:42.886Z,48.51
2022-08-26T04:01:09.589Z,48.37
2022-08-26T04:03:54.806Z,48.45
2022-08-26T04:06:21.403Z,48.56
2022-08-26T04:08:48.301Z,48.59
2022-08-26T04:11:19.898Z,48.59
2022-08-26T04:13:47.973Z,48.50
2022-08-26T04:16:17.928Z,48.84
2022-08-26T04:18:46.771Z,48.51
2022-08-26T04:21:15.312Z,48.62
2022-08-26T04:23:47.731Z,48.65
2022-08-26T04:26:15.462Z,49.26
2022-08-26T04:28:41.970Z,49.09
2022-08-26T04:31:13.065Z,48.72
2022-08-26T04:33:41.725Z,48.98
2022-08-26T04:36:08.815Z,49.36
2022-08-26T04:38:35.461Z,49.62
2022-08-26T04:41:03.285Z,49.77
2022-08-26T04:43:31.983Z,49.54
2022-08-26T04:46:03.360Z,49.69
2022-08-26T04:48:31.116Z,49.66
2022-08-26T04:50:58.564Z,49.77
2022-08-26T04:53:26.080Z,50.06
2022-08-26T04:55:55.123Z,50.17
2022-08-26T04:58:23.148Z,50.31
2022-08-26T05:00:52.382Z,50.44
2022-08-26T05:03:21.439Z,50.88
2022-08-26T05:05:50.073Z,50.75
2022-08-26T05:08:19.328Z,51.29
2022-08-26T05:10:48.843Z,51.34
2022-08-26T05:13:18.736Z,51.06
2022-08-26T05:15:48.240Z,51.33
2022-08-26T05:18:17.770Z,51.13
2022-08-26T05:20:49.531Z,51.08
2022-08-26T05:23:16.911Z,50.96
2022-08-26T05:25:46.548Z,51.28
2022-08-26T05:28:15.241Z,51.73
2022-08-26T05:30:42.895Z,51.45
2022-08-26T05:33:12.091Z,51.71
2022-08-26T05:35:39.469Z,51.77
2022-08-26T05:38:12.387Z,51.56
2022-08-26T05:40:43.144Z,52.05
2022-08-26T05:43:13.373Z,52.49
2022-08-26T05:45:46.081Z,52.14
2022-08-26T05:48:14.164Z,52.44
2022-08-26T05:50:43.209Z,52.05
2022-08-26T05:53:11.329Z,52.85
2022-08-26T05:55:48.590Z,52.33
2022-08-26T05:58:17.437Z,52.89
2022-08-26T06:00:44.577Z,53.11
2022-08-26T06:03:11.332Z,53.11
2022-08-26T06:05:39.834Z,53.01
2022-08-26T06:08:14.004Z,53.18
2022-08-26T06:11:00.519Z,52.68
2022-08-26T06:13:31.945Z,53.44
2022-08-26T06:15:59.661Z,53.50
2022-08-26T06:18:36.254Z,53.55
2022-08-26T06:21:19.809Z,53.68
2022-08-26T06:24:06.875Z,53.92
2022-08-26T06:26:35.660Z,54.29
2022-08-26T06:29:04.739Z,54.29
2022-08-26T06:31:33.367Z,54.43
2022-08-26T06:34:00.171Z,54.27
2022-08-26T06:36:30.648Z,54.26
2022-08-26T06:39:04.530Z,54.08
2022-08-26T06:41:33.514Z,54.52
2022-08-26T06:44:02.503Z,54.49
2022-08-26T06:46:29.583Z,54.78
2022-08-26T06:48:58.281Z,55.01
2022-08-26T06:51:30.476Z,54.48
2022-08-26T06:54:00.130Z,54.98
2022-08-26T06:56:32.743Z,54.27
2022-08-26T06:58:59.545Z,54.72
2022-08-26T07:01:29.331Z,54.72
2022-08-26T07:03:58.545Z,54.35
2022-08-26T07:06:27.418Z,54.31
2022-08-26T07:09:01.674Z,54.67
2022-08-26T07:11:29.906Z,52.87
2022-08-26T07:13:58.919Z,54.29
2022-08-26T07:16:28.256Z,54.78
2022-08-26T07:18:57.397Z,54.84
2022-08-26T07:21:24.921Z,54.72
2022-08-26T07:23:57.503Z,54.92
2022-08-26T07:26:30.055Z,54.56
2022-08-26T07:28:58.303Z,54.92
2022-08-26T07:31:27.894Z,55.29
2022-08-26T07:33:56.780Z,55.08
2022-08-26T07:36:24.495Z,55.30
2022-08-26T07:38:51.800Z,55.45
2022-08-26T07:41:22.708Z,54.91
2022-08-26T07:43:49.994Z,55.31
2022-08-26T07:46:20.664Z,55.38
2022-08-26T07:48:53.478Z,55.23
2022-08-26T07:51:21.879Z,54.98
2022-08-26T07:53:52.325Z,54.80
2022-08-26T07:56:20.023Z,55.01
2022-08-26T07:58:51.516Z,54.42
2022-08-26T08:01:24.158Z,54.45
2022-08-26T08:03:52.072Z,54.16
2022-08-26T08:06:20.276Z,54.23
2022-08-26T08:08:47.539Z,54.24
2022-08-26T08:11:14.652Z,54.05
2022-08-26T08:13:41.451Z,53.42
2022-08-26T08:16:12.701Z,53.79
2022-08-26T08:18:40.132Z,53.53
2022-08-26T08:21:24.144Z,54.04
2022-08-26T08:23:53.084Z,53.91
2022-08-26T08:26:19.967Z,54.09
2022-08-26T08:28:47.836Z,53.64
2022-08-26T08:31:58.413Z,53.69
2022-08-26T08:34:35.445Z,53.96
2022-08-26T08:37:01.901Z,54.58
2022-08-26T08:39:31.552Z,54.48
2022-08-26T08:42:30.331Z,54.15
2022-08-26T08:44:59.785Z,53.82
2022-08-26T08:47:34.517Z,53.66
2022-08-26T08:50:35.314Z,53.66
2022-08-26T08:53:18.958Z,54.13
2022-08-26T08:55:57.289Z,54.32
2022-08-26T08:58:43.610Z,53.48
2022-08-26T09:01:15.262Z,52.51
2022-08-26T09:04:20.450Z,53.06
2022-08-26T09:06:49.782Z,53.32
2022-08-26T09:09:39.549Z,53.07
2022-08-26T09:12:13.075Z,53.29
2022-08-26T09:14:40.700Z,53.64
2022-08-26T09:17:33.052Z,52.89
2022-08-26T09:20:23.983Z,52.68
2022-08-26T09:22:51.391Z,53.01
2022-08-26T09:25:18.708Z,53.07
2022-08-26T09:27:50.492Z,52.84
2022-08-26T09:30:30.975Z,52.72
2022-08-26T09:33:11.306Z,52.24
2022-08-26T09:35:41.160Z,52.42
2022-08-26T09:38:40.421Z,51.85
2022-08-26T09:41:22.017Z,52.00
2022-08-26T09:44:15.728Z,51.66
2022-08-26T09:46:54.117Z,51.77
2022-08-26T09:49:31.640Z,51.81
2022-08-26T09:52:25.963Z,51.50
2022-08-26T09:55:09.739Z,50.99
2022-08-26T09:57:45.669Z,51.14
2022-08-26T10:00:38.507Z,51.24
2022-08-26T10:03:17.356Z,51.00
2022-08-26T10:05:54.817Z,51.38
2022-08-26T10:08:30.004Z,51.38
2022-08-26T10:11:00.078Z,51.55
2022-08-26T10:13:42.260Z,51.33
2022-08-26T10:16:30.431Z,51.10
2022-08-26T10:19:07.611Z,51.04
2022-08-26T10:21:56.182Z,51.01
2022-08-26T10:24:30.372Z,50.88
2022-08-26T10:27:10.988Z,50.41
2022-08-26T10:29:45.810Z,50.35
2022-08-26T10:32:27.575Z,50.35
2022-08-26T10:34:54.395Z,50.50
2022-08-26T10:37:23.946Z,50.79
2022-08-26T10:40:15.861Z,50.03
2022-08-26T10:42:48.729Z,50.21
2022-08-26T10:45:20.079Z,50.12
2022-08-26T10:48:07.281Z,49.64
2022-08-26T10:50:43.094Z,49.50
2022-08-26T10:53:47.494Z,49.17
2022-08-26T10:56:46.502Z,49.15
2022-08-26T10:59:40.526Z,48.93
2022-08-26T11:02:15.492Z,49.24
2022-08-26T11:04:51.121Z,49.35
2022-08-26T11:07:31.720Z,48.87
2022-08-26T11:10:21.300Z,48.63
2022-08-26T11:12:55.307Z,48.71
2022-08-26T11:15:29.462Z,48.80
2022-08-26T11:18:20.842Z,48.68
2022-08-26T11:20:51.553Z,48.78
2022-08-26T11:23:22.303Z,48.74
2022-08-26T11:26:10.958Z,48.25
2022-08-26T11:28:44.510Z,48.24
2022-08-26T11:31:33.214Z,47.99
2022-08-26T11:34:03.378Z,47.87
2022-08-26T11:36:45.392Z,47.48
2022-08-26T11:39:21.132Z,47.06
2022-08-26T11:41:49.418Z,47.42
2022-08-26T11:44:23.481Z,47.26
2022-08-26T11:46:57.246Z,46.91
2022-08-26T11:49:24.896Z,47.06
2022-08-26T11:51:51.753Z,46.74
2022-08-26T11:54:35.327Z,46.39
2022-08-26T11:57:09.425Z,46.74
2022-08-26T11:59:40.049Z,46.33
2022-08-26T12:02:15.440Z,45.84
2022-08-26T12:04:46.352Z,45.92
2022-08-26T12:07:13.391Z,45.87
2022-08-26T12:09:53.045Z,45.37
2022-08-26T12:12:34.780Z,45.35
2022-08-26T12:15:18.600Z,45.04
2022-08-26T12:17:51.736Z,45.13
2022-08-26T12:20:48.449Z,45.28
2022-08-26T12:23:22.659Z,44.91
2022-08-26T12:25:52.650Z,45.26
2022-08-26T12:28:31.122Z,44.89
2022-08-26T12:31:02.724Z,45.05
2022-08-26T12:33:30.197Z,44.87
2022-08-26T12:35:59.246Z,45.06
2022-08-26T12:38:27.459Z,44.60
2022-08-26T12:40:55.025Z,44.64
2022-08-26T12:43:43.426Z,44.72
2022-08-26T12:46:15.814Z,44.06
2022-08-26T12:48:47.335Z,44.38
2022-08-26T12:51:24.566Z,44.55
2022-08-26T12:53:51.740Z,44.08
2022-08-26T12:56:20.136Z,44.29
2022-08-26T12:59:00.892Z,44.07
2022-08-26T13:01:27.566Z,43.66
2022-08-26T13:03:54.152Z,43.58
2022-08-26T13:06:20.536Z,43.35
2022-08-26T13:08:54.037Z,42.99
2022-08-26T13:11:25.718Z,43.41
2022-08-26T13:14:00.357Z,43.09
2022-08-26T13:16:28.412Z,42.71
2022-08-26T13:19:03.983Z,42.71
2022-08-26T13:21:37.678Z,42.35
2022-08-26T13:24:17.857Z,42.27
2022-08-26T13:26:46.271Z,42.10
2022-08-26T13:29:13.238Z,42.11
2022-08-26T13:31:41.792Z,42.43
2022-08-26T13:34:10.702Z,42.67
2022-08-26T13:36:37.281Z,42.81
2022-08-26T13:39:05.203Z,43.10
2022-08-26T13:41:32.367Z,43.05
2022-08-26T13:43:59.672Z,42.87
2022-08-26T13:46:27.923Z,43.36
2022-08-26T13:48:55.255Z,42.94
2022-08-26T13:51:22.890Z,43.10
2022-08-26T13:53:50.565Z,43.16
2022-08-26T13:56:18.670Z,42.91
2022-08-26T13:58:46.044Z,42.64
2022-08-26T14:01:13.424Z,42.75
2022-08-26T14:03:40.036Z,42.96
2022-08-26T14:06:06.645Z,43.14
2022-08-26T14:08:33.096Z,42.68
2022-08-26T14:10:59.821Z,42.13
2022-08-26T14:13:26.851Z,42.31
2022-08-26T14:15:53.957Z,42.80
2022-08-26T14:18:28.284Z,42.47
2022-08-26T14:20:55.166Z,42.92
2022-08-26T14:23:22.621Z,42.70
2022-08-26T14:25:49.320Z,43.11
2022-08-26T14:28:15.909Z,42.85
2022-08-26T14:30:43.932Z,43.18
2022-08-26T14:33:13.223Z,42.96
2022-08-26T14:35:39.937Z,42.88
2022-08-26T14:38:14.900Z,42.91
2022-08-26T14:40:44.628Z,43.03
2022-08-26T14:43:15.107Z,43.41
2022-08-26T14:45:45.136Z,43.51
2022-08-26T14:48:11.631Z,43.59
2022-08-26T14:50:38.310Z,43.46
2022-08-26T14:53:23.452Z,43.90
2022-08-26T14:55:50.518Z,43.90
2022-08-26T14:58:17.296Z,43.87
2022-08-26T15:00:43.928Z,43.93
2022-08-26T15:03:10.499Z,44.07
2022-08-26T15:05:37.226Z,44.08
2022-08-26T15:08:10.191Z,44.28
2022-08-26T15:10:36.986Z,43.94
2022-08-26T15:13:03.526Z,43.50
2022-08-26T15:15:30.075Z,43.52
2022-08-26T15:17:56.889Z,43.81
2022-08-26T15:20:23.434Z,43.60
2022-08-26T15:22:50.029Z,43.51
2022-08-26T15:25:18.067Z,43.84
2022-08-26T15:27:44.756Z,43.74
2022-08-26T15:30:12.371Z,43.85
2022-08-26T15:32:39.096Z,43.80
2022-08-26T15:35:09.084Z,43.95
2022-08-26T15:37:36.517Z,43.71
2022-08-26T15:40:03.776Z,43.81
2022-08-26T15:42:30.429Z,43.49
2022-08-26T15:44:56.938Z,43.71
2022-08-26T15:47:23.788Z,43.72
2022-08-26T15:49:50.240Z,44.36
2022-08-26T15:52:17.273Z,44.39
2022-08-26T15:54:43.774Z,44.66
2022-08-26T15:57:12.347Z,44.74
2022-08-26T15:59:40.213Z,44.90
2022-08-26T16:02:07.326Z,45.39
2022-08-26T16:04:34.067Z,45.45
2022-08-26T16:07:00.932Z,46.00
2022-08-26T16:09:28.779Z,46.09
2022-08-26T16:11:56.250Z,46.02
2022-08-26T16:14:23.877Z,46.32
2022-08-26T16:16:51.011Z,46.45
2022-08-26T16:19:17.765Z,46.41
2022-08-26T16:21:44.770Z,46.43
2022-08-26T16:24:12.032Z,46.94
2022-08-26T16:26:41.252Z,46.73
2022-08-26T16:29:10.329Z,47.18
2022-08-26T16:31:38.339Z,47.27
2022-08-26T16:34:06.667Z,47.23
2022-08-26T16:36:33.723Z,47.42
2022-08-26T16:39:00.636Z,47.49
2022-08-26T16:41:28.944Z,47.39
2022-08-26T16:43:55.934Z,47.51
2022-08-26T16:46:26.037Z,47.68
2022-08-26T16:48:57.830Z,47.51
2022-08-26T16:51:27.168Z,47.93
2022-08-26T16:53:55.223Z,47.60
2022-08-26T16:56:30.595Z,47.77
2022-08-26T16:59:02.185Z,48.17
2022-08-26T17:01:28.810Z,48.14
2022-08-26T17:03:55.412Z,48.22
2022-08-26T17:06:21.955Z,48.03
2022-08-26T17:08:49.466Z,48.35
2022-08-26T17:11:16.923Z,48.30
2022-08-26T17:13:43.465Z,47.93
2022-08-26T17:16:11.659Z,48.06
2022-08-26T17:18:38.648Z,48.08
2022-08-26T17:21:11.019Z,48.13
2022-08-26T17:23:38.617Z,48.25
2022-08-26T17:26:05.305Z,48.58
2022-08-26T17:28:32.269Z,48.24
2022-08-26T17:30:59.620Z,48.42
2022-08-26T17:33:26.682Z,48.78
2022-08-26T17:35:53.648Z,48.39
2022-08-26T17:38:21.215Z,48.49
2022-08-26T17:40:47.775Z,48.69
2022-08-26T17:43:14.228Z,48.74
2022-08-26T17:45:41.422Z,49.06
2022-08-26T17:48:08.151Z,49.18
2022-08-26T17:50:34.923Z,49.21
2022-08-26T17:53:01.423Z,49.42
2022-08-26T17:55:27.995Z,49.51
2022-08-26T17:57:54.596Z,49.50
2022-08-26T18:00:26.412Z,49.79
2022-08-26T18:02:54.406Z,49.95
2022-08-26T18:05:22.242Z,49.61
2022-08-26T18:07:48.763Z,49.85
2022-08-26T18:10:20.706Z,49.41
2022-08-26T18:12:48.573Z,50.21
2022-08-26T18:15:16.806Z,50.01
2022-08-26T18:17:43.892Z,50.56
2022-08-26T18:20:13.106Z,50.65
2022-08-26T18:22:40.038Z,50.82
2022-08-26T18:25:08.298Z,50.94
2022-08-26T18:27:36.082Z,50.97
2022-08-26T18:30:13.408Z,51.14
2022-08-26T18:32:42.501Z,51.31
2022-08-26T18:35:10.374Z,51.35
2022-08-26T18:37:37.471Z,51.61
2022-08-26T18:40:07.231Z,51.27
2022-08-26T18:42:34.015Z,51.12
2022-08-26T18:45:00.728Z,51.42
2022-08-26T18:47:27.324Z,51.71
2022-08-26T18:49:53.860Z,51.58
2022-08-26T18:52:20.265Z,51.90
2022-08-26T18:54:46.726Z,52.18
2022-08-26T18:57:13.242Z,52.10
2022-08-26T18:59:40.901Z,52.54
2022-08-26T19:02:08.416Z,52.56
2022-08-26T19:04:37.217Z,52.24
2022-08-26T19:07:04.118Z,52.73
2022-08-26T19:09:31.581Z,52.53
2022-08-26T19:11:58.834Z,52.71
2022-08-26T19:14:25.297Z,52.68
2022-08-26T19:16:52.660Z,52.80
2022-08-26T19:19:21.118Z,53.00
2022-08-26T19:21:48.072Z,52.77
2022-08-26T19:24:17.572Z,52.80
2022-08-26T19:26:49.132Z,52.91
2022-08-26T19:31:49.127Z,53.59
2022-08-26T19:34:16.199Z,53.62
2022-08-26T19:36:47.490Z,54.09
2022-08-26T19:39:14.316Z,54.34
2022-08-26T19:41:41.007Z,54.36
2022-08-26T19:44:23.474Z,54.44
2022-08-26T19:46:49.936Z,54.55
2022-08-26T19:49:16.392Z,54.77
2022-08-26T19:51:42.833Z,55.14
2022-08-26T19:54:09.278Z,55.18
2022-08-26T19:56:35.723Z,55.34
2022-08-26T19:59:02.321Z,55.41
2022-08-26T20:01:28.903Z,55.48
2022-08-26T20:06:26.828Z,55.33
2022-08-26T20:08:53.876Z,55.73
2022-08-26T20:11:21.491Z,55.84
2022-08-26T20:13:47.990Z,55.49
2022-08-26T20:16:15.944Z,55.94
2022-08-26T20:19:02.886Z,55.82
2022-08-26T20:21:34.124Z,55.78
2022-08-26T20:24:05.354Z,56.08
2022-08-26T20:26:34.602Z,55.98
2022-08-26T20:29:01.388Z,56.48
2022-08-26T20:31:28.479Z,56.39
2022-08-26T20:33:55.325Z,56.64
2022-08-26T20:36:23.794Z,56.47
2022-08-26T20:38:50.639Z,56.78
2022-08-26T20:41:18.310Z,56.81
2022-08-26T20:43:46.499Z,56.98
2022-08-26T20:46:18.745Z,56.82
2022-08-26T20:48:47.997Z,56.95
2022-08-26T20:51:15.400Z,57.40
2022-08-26T20:53:42.002Z,57.45
2022-08-26T20:56:10.198Z,57.29
2022-08-26T20:58:38.386Z,57.49
2022-08-26T21:01:07.946Z,57.39
2022-08-26T21:03:35.966Z,57.80
2022-08-26T21:06:03.648Z,57.87
2022-08-26T21:08:30.664Z,57.88
2022-08-26T21:11:00.176Z,57.93
2022-08-26T21:13:26.745Z,58.04
2022-08-26T21:15:58.114Z,58.03
2022-08-26T21:18:25.234Z,58.15
2022-08-26T21:20:51.699Z,58.24
2022-08-26T21:23:18.606Z,58.42
2022-08-26T21:25:46.597Z,58.34
2022-08-26T21:28:13.487Z,58.44
2022-08-26T21:30:40.983Z,58.64
2022-08-26T21:33:08.483Z,58.70
2022-08-26T21:35:35.398Z,58.47
2022-08-26T21:38:02.072Z,58.46
2022-08-26T21:40:28.632Z,58.08
2022-08-26T21:42:55.133Z,58.49
2022-08-26T21:45:21.786Z,58.63
2022-08-26T21:47:48.277Z,58.29
2022-08-26T21:50:14.737Z,58.75
2022-08-26T21:52:41.297Z,58.67
2022-08-26T21:55:08.864Z,58.91
2022-08-26T21:57:35.680Z,59.06
2022-08-26T22:00:04.716Z,59.08
2022-08-26T22:02:31.409Z,58.75
2022-08-26T22:04:57.932Z,58.86
2022-08-26T22:07:24.458Z,58.74
2022-08-26T22:09:50.936Z,59.12
2022-08-26T22:12:18.286Z,59.06
2022-08-26T22:14:45.731Z,58.95
2022-08-26T22:17:12.373Z,59.10
2022-08-26T22:19:45.696Z,58.91
2022-08-26T22:22:14.788Z,58.80
2022-08-26T22:24:43.190Z,59.19
2022-08-26T22:27:11.874Z,59.05
2022-08-26T22:29:38.674Z,59.10
2022-08-26T22:32:05.629Z,59.06
2022-08-26T22:34:32.176Z,58.86
2022-08-26T22:36:59.143Z,58.90
2022-08-26T22:39:26.383Z,59.18
2022-08-26T22:41:53.500Z,59.29
2022-08-26T22:44:22.285Z,59.00
2022-08-26T22:46:50.226Z,59.22
2022-08-26T22:49:17.377Z,59.26
2022-08-26T22:51:45.165Z,59.24
2022-08-26T22:54:12.102Z,59.38
2022-08-26T22:56:39.332Z,59.34
2022-08-26T22:59:07.770Z,59.42
2022-08-26T23:01:36.769Z,59.57
2022-08-26T23:04:04.822Z,59.50
2022-08-26T23:06:31.309Z,59.36
2022-08-26T23:08:57.997Z,59.48
2022-08-26T23:11:24.487Z,59.50
2022-08-26T23:13:50.927Z,59.74
2022-08-26T23:16:17.432Z,60.06
2022-08-26T23:18:43.974Z,59.83
2022-08-26T23:21:10.709Z,59.85
2022-08-26T23:23:38.368Z,59.88
2022-08-26T23:26:06.964Z,60.14
2022-08-26T23:28:34.841Z,60.06
2022-08-26T23:31:01.776Z,60.01
2022-08-26T23:33:48.163Z,59.81
2022-08-26T23:36:17.688Z,59.94
2022-08-26T23:38:44.740Z,60.08
2022-08-26T23:41:18.853Z,59.74
2022-08-26T23:43:45.321Z,60.23
2022-08-26T23:46:11.843Z,60.12
2022-08-26T23:48:38.626Z,60.47
2022-08-26T23:51:23.688Z,60.50
2022-08-26T23:53:50.675Z,60.20
2022-08-26T23:56:17.727Z,60.44
2022-08-26T23:58:44.517Z,60.50
